createdAt,value
2019-03-23T00:01:49.334Z,8.37
2019-03-23T00:05:53.712Z,7.37
2019-03-23T00:09:58.819Z,10.13
2019-03-23T00:14:03.304Z,8.70
2019-03-23T00:18:07.595Z,8.80
2019-03-23T00:22:11.956Z,13.30
2019-03-23T00:26:16.216Z,12.77
2019-03-23T00:30:20.684Z,8.20
2019-03-23T00:34:24.996Z,9.00
2019-03-23T00:38:29.360Z,9.60
2019-03-23T00:42:33.667Z,11.43
2019-03-23T00:46:37.996Z,9.73
2019-03-23T00:50:42.285Z,12.80
2019-03-23T00:54:46.795Z,13.37
2019-03-23T00:58:51.160Z,14.47
2019-03-23T01:02:55.570Z,14.57
2019-03-23T01:06:59.856Z,15.03
2019-03-23T01:11:04.091Z,15.13
2019-03-23T01:15:08.686Z,16.07
2019-03-23T01:19:13.048Z,17.77
2019-03-23T01:23:17.388Z,17.67
2019-03-23T01:27:21.863Z,17.33
2019-03-23T01:31:26.245Z,18.23
2019-03-23T01:35:30.563Z,20.50
2019-03-23T01:39:34.840Z,19.60
2019-03-23T01:43:39.150Z,18.20
2019-03-23T01:47:43.462Z,20.40
2019-03-23T01:51:47.734Z,22.20
2019-03-23T01:55:52.166Z,23.30
2019-03-23T01:59:56.404Z,25.47
2019-03-23T02:04:00.824Z,24.57
2019-03-23T02:08:05.206Z,25.67
2019-03-23T02:12:09.580Z,23.33
2019-03-23T02:16:13.989Z,30.33
2019-03-23T02:20:18.323Z,21.37
2019-03-23T02:24:22.675Z,20.17
2019-03-23T02:28:27.061Z,24.20
2019-03-23T02:32:31.536Z,21.23
2019-03-23T02:36:35.840Z,22.13
2019-03-23T02:40:40.039Z,26.10
2019-03-23T02:44:44.351Z,24.23
2019-03-23T02:48:48.674Z,24.50
2019-03-23T02:52:52.968Z,29.27
2019-03-23T02:56:57.464Z,23.17
2019-03-23T03:01:01.861Z,23.00
2019-03-23T03:05:07.197Z,20.83
2019-03-23T03:09:11.831Z,22.80
2019-03-23T03:13:16.250Z,21.10
2019-03-23T03:17:20.507Z,21.30
2019-03-23T03:21:24.868Z,23.97
2019-03-23T03:25:29.247Z,24.47
2019-03-23T03:29:33.616Z,26.30
2019-03-23T03:33:37.918Z,28.57
2019-03-23T03:37:55.921Z,30.00
2019-03-23T03:41:48.262Z,29.43
2019-03-23T03:45:52.438Z,33.73
2019-03-23T03:49:56.848Z,32.23
2019-03-23T03:54:01.331Z,33.33
2019-03-23T03:58:05.669Z,29.83
2019-03-23T04:02:10.228Z,31.47
2019-03-23T04:06:17.604Z,33.03
2019-03-23T04:10:22.038Z,30.87
2019-03-23T04:14:26.461Z,35.00
2019-03-23T04:18:30.831Z,29.07
2019-03-23T04:22:35.184Z,30.07
2019-03-23T04:26:39.602Z,29.47
2019-03-23T04:30:43.868Z,29.07
2019-03-23T04:34:48.276Z,26.83
2019-03-23T04:38:52.665Z,28.43
2019-03-23T04:42:56.868Z,24.97
2019-03-23T04:47:01.144Z,27.27
2019-03-23T04:51:06.589Z,26.20
2019-03-23T04:55:11.107Z,22.07
2019-03-23T04:59:15.377Z,26.83
2019-03-23T05:03:19.788Z,26.13
2019-03-23T05:07:24.072Z,27.43
2019-03-23T05:11:28.409Z,27.23
2019-03-23T05:15:32.714Z,26.40
2019-03-23T05:19:37.006Z,23.10
2019-03-23T05:23:41.357Z,24.93
2019-03-23T05:27:45.652Z,25.57
2019-03-23T05:31:49.876Z,31.97
2019-03-23T05:35:55.140Z,27.80
2019-03-23T05:39:59.431Z,21.73
2019-03-23T05:44:04.083Z,28.40
2019-03-23T05:48:08.481Z,24.03
2019-03-23T05:52:12.799Z,27.47
2019-03-23T05:56:17.007Z,31.97
2019-03-23T06:00:21.396Z,36.37
2019-03-23T06:04:25.744Z,26.57
2019-03-23T06:08:30.157Z,24.30
2019-03-23T06:12:34.833Z,25.87
2019-03-23T06:16:39.276Z,22.57
2019-03-23T06:20:43.875Z,25.03
2019-03-23T06:24:48.341Z,22.30
2019-03-23T06:28:52.583Z,21.80
2019-03-23T06:32:59.276Z,22.50
2019-03-23T06:37:04.922Z,21.80
2019-03-23T06:41:09.355Z,17.80
2019-03-23T06:45:13.861Z,17.33
2019-03-23T06:49:18.293Z,16.63
2019-03-23T06:53:22.657Z,16.83
2019-03-23T06:57:26.985Z,19.33
2019-03-23T07:01:31.286Z,17.73
2019-03-23T07:05:35.643Z,17.37
2019-03-23T07:09:39.945Z,18.20
2019-03-23T07:13:44.735Z,22.50
2019-03-23T07:17:49.179Z,17.00
2019-03-23T07:21:53.653Z,20.50
2019-03-23T07:25:57.981Z,17.50
2019-03-23T07:30:04.200Z,19.33
2019-03-23T07:34:08.536Z,18.43
2019-03-23T07:38:13.079Z,18.17
2019-03-23T07:42:17.500Z,17.13
2019-03-23T07:46:21.883Z,18.60
2019-03-23T07:50:26.281Z,17.00
2019-03-23T07:54:30.576Z,18.83
2019-03-23T07:58:34.873Z,21.53
2019-03-23T08:02:39.287Z,20.77
2019-03-23T08:06:43.592Z,20.67
2019-03-23T08:10:47.906Z,18.10
2019-03-23T08:14:52.240Z,19.13
2019-03-23T08:18:56.413Z,20.03
2019-03-23T08:23:00.865Z,20.30
2019-03-23T08:27:05.176Z,22.20
2019-03-23T08:31:09.390Z,18.80
2019-03-23T08:35:13.756Z,18.10
2019-03-23T08:39:18.068Z,20.87
2019-03-23T08:43:22.369Z,18.93
2019-03-23T08:47:26.817Z,21.83
2019-03-23T08:51:31.325Z,20.93
2019-03-23T08:55:35.662Z,22.07
2019-03-23T08:59:39.928Z,23.17
2019-03-23T09:03:52.409Z,24.37
2019-03-23T09:07:52.543Z,28.50
2019-03-23T09:11:56.792Z,23.83
2019-03-23T09:16:01.321Z,23.83
2019-03-23T09:20:06.510Z,24.03
2019-03-23T09:24:11.991Z,26.23
2019-03-23T09:28:17.319Z,24.63
2019-03-23T09:32:21.642Z,30.17
2019-03-23T09:36:25.938Z,21.77
2019-03-23T09:40:30.521Z,24.10
2019-03-23T09:44:34.823Z,29.67
2019-03-23T09:48:39.324Z,22.33
2019-03-23T09:52:43.732Z,24.33
2019-03-23T09:56:48.065Z,25.70
2019-03-23T10:00:52.451Z,26.57
2019-03-23T10:04:56.834Z,24.17
2019-03-23T10:09:01.251Z,19.27
2019-03-23T10:13:06.777Z,20.37
2019-03-23T10:17:13.133Z,21.17
2019-03-23T10:21:17.417Z,20.33
2019-03-23T10:25:22.700Z,24.67
2019-03-23T10:29:27.158Z,21.37
2019-03-23T10:33:31.337Z,19.93
2019-03-23T10:37:35.832Z,23.07
2019-03-23T10:41:40.202Z,20.63
2019-03-23T10:45:44.641Z,23.20
2019-03-23T10:49:49.108Z,20.63
2019-03-23T10:53:54.341Z,22.60
2019-03-23T10:57:58.608Z,28.90
2019-03-23T11:02:03.107Z,46.80
2019-03-23T11:06:07.443Z,28.27
2019-03-23T11:10:11.906Z,20.00
2019-03-23T11:14:16.805Z,23.33
2019-03-23T11:18:21.265Z,25.20
2019-03-23T11:22:25.857Z,22.40
2019-03-23T11:26:30.224Z,20.90
2019-03-23T11:30:34.632Z,19.60
2019-03-23T11:34:40.190Z,25.27
2019-03-23T11:38:44.616Z,25.13
2019-03-23T11:42:50.353Z,20.53
2019-03-23T11:46:55.014Z,24.83
2019-03-23T11:50:59.568Z,26.30
2019-03-23T11:55:03.954Z,29.53
2019-03-23T11:59:09.417Z,26.10
2019-03-23T12:03:13.720Z,26.23
2019-03-23T12:17:33.374Z,29.50
2019-03-23T12:21:38.113Z,27.73
2019-03-23T12:25:42.618Z,27.90
2019-03-23T12:29:46.867Z,25.37
2019-03-23T12:33:51.155Z,28.23
2019-03-23T12:37:55.527Z,27.70
2019-03-23T12:41:59.824Z,32.50
2019-03-23T12:46:04.078Z,31.50
2019-03-23T12:50:08.697Z,34.07
2019-03-23T12:54:14.070Z,35.17
2019-03-23T12:58:18.368Z,34.27
2019-03-23T13:02:22.719Z,33.50
2019-03-23T13:06:27.096Z,48.97
2019-03-23T13:10:31.292Z,44.07
2019-03-23T13:14:35.589Z,43.27
2019-03-23T13:18:39.876Z,47.97
2019-03-23T13:22:44.175Z,46.07
2019-03-23T13:26:48.436Z,38.63
2019-03-23T13:30:52.663Z,47.57
2019-03-23T13:34:57.058Z,46.73
2019-03-23T13:39:01.407Z,45.20
2019-03-23T13:43:06.988Z,48.13
2019-03-23T13:47:11.278Z,52.27
2019-03-23T13:51:15.757Z,52.57
2019-03-23T13:55:24.815Z,53.17
2019-03-23T13:59:29.018Z,50.50
2019-03-23T14:03:33.270Z,52.77
2019-03-23T14:07:38.128Z,51.60
2019-03-23T14:11:42.300Z,45.37
2019-03-23T14:15:46.601Z,43.70
2019-03-23T14:19:50.897Z,44.40
2019-03-23T14:23:55.402Z,46.00
2019-03-23T14:28:00.016Z,45.60
2019-03-23T14:32:04.365Z,42.67
2019-03-23T14:36:08.782Z,46.00
2019-03-23T14:40:13.158Z,43.43
2019-03-23T14:44:17.650Z,46.27
2019-03-23T14:48:21.917Z,41.83
2019-03-23T14:52:26.107Z,41.37
2019-03-23T14:56:31.652Z,45.90
2019-03-23T15:00:36.176Z,40.30
2019-03-23T15:04:40.603Z,43.40
2019-03-23T15:08:45.053Z,45.33
2019-03-23T15:12:49.187Z,38.67
2019-03-23T15:16:53.474Z,40.33
2019-03-23T15:20:57.849Z,44.00
2019-03-23T15:25:02.660Z,40.93
2019-03-23T15:29:07.239Z,42.20
2019-03-23T15:33:11.555Z,41.67
2019-03-23T15:37:16.080Z,40.03
2019-03-23T15:41:20.486Z,44.20
2019-03-23T15:45:24.769Z,41.33
2019-03-23T15:49:29.070Z,40.40
2019-03-23T15:53:33.320Z,40.03
2019-03-23T15:57:38.707Z,41.30
2019-03-23T16:01:43.015Z,36.70
2019-03-23T16:05:47.429Z,36.37
2019-03-23T16:09:51.754Z,43.37
2019-03-23T16:13:56.202Z,36.73
2019-03-23T16:18:01.651Z,38.33
2019-03-23T16:22:06.138Z,37.47
2019-03-23T16:26:10.491Z,42.27
2019-03-23T16:30:17.303Z,41.07
2019-03-23T16:34:21.643Z,38.63
2019-03-23T16:38:25.943Z,38.57
2019-03-23T16:42:30.240Z,36.33
2019-03-23T16:46:34.593Z,38.03
2019-03-23T16:50:39.014Z,42.03
2019-03-23T16:54:43.311Z,39.17
2019-03-23T16:58:47.703Z,34.90
2019-03-23T17:02:52.147Z,33.93
2019-03-23T17:06:56.543Z,37.53
2019-03-23T17:11:00.640Z,44.33
2019-03-23T17:15:05.614Z,41.07
2019-03-23T17:19:10.008Z,38.17
2019-03-23T17:23:14.289Z,40.77
2019-03-23T17:27:18.642Z,38.40
2019-03-23T17:31:22.928Z,39.80
2019-03-23T17:35:27.539Z,37.00
2019-03-23T17:39:31.927Z,38.40
2019-03-23T17:43:36.161Z,36.23
2019-03-23T17:47:40.530Z,38.53
2019-03-23T17:51:45.207Z,36.57
2019-03-23T17:55:49.547Z,40.73
2019-03-23T17:59:53.682Z,43.27
2019-03-23T18:03:58.088Z,41.97
2019-03-23T18:08:02.603Z,44.60
2019-03-23T18:12:07.076Z,53.63
2019-03-23T18:16:11.395Z,38.03
2019-03-23T18:20:15.706Z,43.53
2019-03-23T18:24:20.104Z,41.40
2019-03-23T18:28:24.456Z,43.17
2019-03-23T18:32:28.722Z,44.00
2019-03-23T18:36:33.242Z,44.53
2019-03-23T18:40:38.127Z,41.87
2019-03-23T18:44:42.622Z,41.97
2019-03-23T18:48:47.033Z,41.50
2019-03-23T18:52:51.319Z,38.80
2019-03-23T18:56:55.711Z,40.90
2019-03-23T19:01:00.080Z,38.20
2019-03-23T19:05:04.481Z,40.83
2019-03-23T19:09:08.871Z,41.60
2019-03-23T19:13:13.219Z,40.57
2019-03-23T19:17:17.619Z,41.27
2019-03-23T19:21:21.816Z,46.47
2019-03-23T19:25:26.400Z,42.53
2019-03-23T19:29:30.634Z,42.73
2019-03-23T19:33:35.317Z,36.80
2019-03-23T19:37:39.703Z,41.73
2019-03-23T19:41:44.073Z,35.10
2019-03-23T19:45:48.357Z,40.73
2019-03-23T19:49:52.775Z,39.23
2019-03-23T19:53:57.028Z,43.93
2019-03-23T19:58:01.404Z,37.57
2019-03-23T20:02:05.783Z,40.80
2019-03-23T20:06:10.265Z,39.73
2019-03-23T20:10:14.758Z,40.60
2019-03-23T20:14:19.056Z,45.33
2019-03-23T20:18:23.505Z,35.40
2019-03-23T20:22:27.888Z,41.23
2019-03-23T20:26:32.210Z,33.67
2019-03-23T20:30:37.118Z,35.50
2019-03-23T20:34:41.569Z,41.53
2019-03-23T20:38:46.038Z,39.47
2019-03-23T20:42:50.379Z,41.37
2019-03-23T20:46:54.935Z,43.73
2019-03-23T20:50:59.208Z,39.63
2019-03-23T20:55:03.954Z,37.23
2019-03-23T20:59:08.315Z,41.73
2019-03-23T21:03:12.729Z,40.90
2019-03-23T21:07:17.351Z,44.47
2019-03-23T21:11:21.764Z,40.53
2019-03-23T21:15:26.160Z,36.27
2019-03-23T21:19:30.498Z,39.90
2019-03-23T21:23:34.869Z,37.00
2019-03-23T21:27:39.111Z,35.63
2019-03-23T21:31:43.562Z,38.13
2019-03-23T21:35:47.827Z,38.67
2019-03-23T21:39:52.243Z,40.70
2019-03-23T21:43:58.971Z,38.90
2019-03-23T21:48:05.718Z,37.40
2019-03-23T21:52:09.975Z,46.37
2019-03-23T21:56:14.287Z,54.77
2019-03-23T22:00:29.023Z,52.80
2019-03-23T22:04:33.162Z,48.43
2019-03-23T22:08:37.461Z,44.57
2019-03-23T22:12:41.729Z,50.07
2019-03-23T22:16:46.004Z,47.13
2019-03-23T22:20:50.378Z,42.03
2019-03-23T22:24:54.775Z,44.77
2019-03-23T22:28:59.039Z,48.13
2019-03-23T22:33:03.626Z,47.30
2019-03-23T22:37:07.954Z,42.37
2019-03-23T22:41:12.240Z,44.23
2019-03-23T22:45:16.582Z,46.13
2019-03-23T22:49:20.874Z,43.70
2019-03-23T22:53:25.222Z,45.13
2019-03-23T22:57:29.540Z,43.40
2019-03-23T23:01:33.924Z,45.40
2019-03-23T23:05:38.267Z,42.97
2019-03-23T23:09:42.591Z,42.17
2019-03-23T23:13:46.955Z,47.90
2019-03-23T23:17:51.314Z,44.53
2019-03-23T23:21:55.746Z,46.63
2019-03-23T23:26:00.243Z,47.60
2019-03-23T23:30:05.543Z,46.00
2019-03-23T23:34:09.870Z,37.80
2019-03-23T23:38:14.167Z,48.60
2019-03-23T23:42:18.502Z,47.57
2019-03-23T23:46:23.023Z,49.70
2019-03-23T23:50:27.171Z,43.53
2019-03-23T23:54:32.399Z,44.43
2019-03-23T23:58:36.687Z,50.97
